sensor_id;sensor_type;location;lat;lon;timestamp;pressure;altitude;pressure_sealevel;temperature;humidity
6837;BME280;3456;42.136;24.736;2023-02-17T00:01:31;147507.78;;;3.15;100.00
6837;BME280;3456;42.136;24.736;2023-02-17T00:04:00;147428.69;;;2.84;100.00
6837;BME280;3456;42.136;24.736;2023-02-17T00:06:30;147493.94;;;3.10;100.00
6837;BME280;3456;42.136;24.736;2023-02-17T00:08:59;147385.97;;;2.67;100.00
6837;BME280;3456;42.136;24.736;2023-02-17T00:11:28;147436.22;;;2.87;100.00
6837;BME280;3456;42.136;24.736;2023-02-17T00:13:57;147482.63;;;3.05;100.00
6837;BME280;3456;42.136;24.736;2023-02-17T00:16:28;147514.06;;;3.18;100.00
6837;BME280;3456;42.136;24.736;2023-02-17T00:18:59;147481.41;;;3.05;100.00
6837;BME280;3456;42.136;24.736;2023-02-17T00:21:48;147491.44;;;3.09;100.00
6837;BME280;3456;42.136;24.736;2023-02-17T00:24:17;147486.41;;;3.07;100.00
6837;BME280;3456;42.136;24.736;2023-02-17T00:26:45;147510.28;;;3.16;100.00
6837;BME280;3456;42.136;24.736;2023-02-17T00:29:15;147495.22;;;3.10;100.00
6837;BME280;3456;42.136;24.736;2023-02-17T00:31:46;147368.41;;;2.60;100.00
6837;BME280;3456;42.136;24.736;2023-02-17T00:34:16;147460.03;;;2.96;100.00
6837;BME280;3456;42.136;24.736;2023-02-17T00:36:45;147413.63;;;2.78;100.00
6837;BME280;3456;42.136;24.736;2023-02-17T00:39:15;147325.72;;;2.43;100.00
6837;BME280;3456;42.136;24.736;2023-02-17T00:41:44;147328.25;;;2.44;100.00
6837;BME280;3456;42.136;24.736;2023-02-17T00:44:15;147299.41;;;2.32;100.00
6837;BME280;3456;42.136;24.736;2023-02-17T00:46:47;147240.41;;;2.08;100.00
6837;BME280;3456;42.136;24.736;2023-02-17T00:49:20;147289.34;;;2.28;100.00
6837;BME280;3456;42.136;24.736;2023-02-17T00:51:49;147325.72;;;2.43;100.00
6837;BME280;3456;42.136;24.736;2023-02-17T00:54:18;147325.72;;;2.43;100.00
6837;BME280;3456;42.136;24.736;2023-02-17T00:56:47;147325.72;;;2.43;100.00
6837;BME280;3456;42.136;24.736;2023-02-17T00:59:16;147355.84;;;2.55;100.00
6837;BME280;3456;42.136;24.736;2023-02-17T01:01:47;147313.19;;;2.38;100.00
6837;BME280;3456;42.136;24.736;2023-02-17T01:04:16;147340.78;;;2.49;100.00
6837;BME280;3456;42.136;24.736;2023-02-17T01:06:44;147368.41;;;2.60;100.00
6837;BME280;3456;42.136;24.736;2023-02-17T01:09:13;147325.72;;;2.43;100.00
6837;BME280;3456;42.136;24.736;2023-02-17T01:11:42;147355.84;;;2.55;100.00
6837;BME280;3456;42.136;24.736;2023-02-17T01:14:12;147368.41;;;2.60;100.00
6837;BME280;3456;42.136;24.736;2023-02-17T01:16:45;147363.38;;;2.58;100.00
6837;BME280;3456;42.136;24.736;2023-02-17T01:19:17;147374.66;;;2.62;100.00
6837;BME280;3456;42.136;24.736;2023-02-17T01:21:46;147245.44;;;2.11;100.00
6837;BME280;3456;42.136;24.736;2023-02-17T01:24:15;147305.66;;;2.35;100.00
6837;BME280;3456;42.136;24.736;2023-02-17T01:26:44;147242.94;;;2.10;100.00
6837;BME280;3456;42.136;24.736;2023-02-17T01:29:12;147347.09;;;2.51;100.00
6837;BME280;3456;42.136;24.736;2023-02-17T01:31:41;147335.78;;;2.47;100.00
6837;BME280;3456;42.136;24.736;2023-02-17T01:34:10;147301.91;;;2.33;100.00
6837;BME280;3456;42.136;24.736;2023-02-17T01:36:41;147320.72;;;2.41;100.00
6837;BME280;3456;42.136;24.736;2023-02-17T01:39:12;147262.97;;;2.18;100.00
6837;BME280;3456;42.136;24.736;2023-02-17T01:41:41;147310.66;;;2.37;100.00
6837;BME280;3456;42.136;24.736;2023-02-17T01:44:13;147321.97;;;2.41;100.00
6837;BME280;3456;42.136;24.736;2023-02-17T01:46:44;147290.59;;;2.29;100.00
6837;BME280;3456;42.136;24.736;2023-02-17T01:49:30;147284.34;;;2.26;100.00
6837;BME280;3456;42.136;24.736;2023-02-17T01:52:07;147268.03;;;2.20;100.00
6837;BME280;3456;42.136;24.736;2023-02-17T01:54:40;147232.88;;;2.05;100.00
6837;BME280;3456;42.136;24.736;2023-02-17T01:57:12;147268.03;;;2.20;100.00
6837;BME280;3456;42.136;24.736;2023-02-17T01:59:43;147299.41;;;2.32;100.00
6837;BME280;3456;42.136;24.736;2023-02-17T02:02:12;147280.59;;;2.25;100.00
6837;BME280;3456;42.136;24.736;2023-02-17T02:04:44;147261.75;;;2.17;100.00
6837;BME280;3456;42.136;24.736;2023-02-17T02:07:20;147315.69;;;2.39;100.00
6837;BME280;3456;42.136;24.736;2023-02-17T02:09:52;147291.88;;;2.29;100.00
6837;BME280;3456;42.136;24.736;2023-02-17T02:12:23;147283.09;;;2.26;100.00
6837;BME280;3456;42.136;24.736;2023-02-17T02:14:55;147222.84;;;2.01;100.00
6837;BME280;3456;42.136;24.736;2023-02-17T02:17:32;147173.91;;;1.82;100.00
6837;BME280;3456;42.136;24.736;2023-02-17T02:20:23;147250.47;;;2.13;100.00
6837;BME280;3456;42.136;24.736;2023-02-17T02:23:22;147230.38;;;2.04;100.00
6837;BME280;3456;42.136;24.736;2023-02-17T02:26:37;147192.75;;;1.89;100.00
6837;BME280;3456;42.136;24.736;2023-02-17T02:29:27;147141.31;;;1.69;100.00
6837;BME280;3456;42.136;24.736;2023-02-17T02:34:44;146979.56;;;1.04;100.00
6837;BME280;3456;42.136;24.736;2023-02-17T02:37:18;146989.63;;;1.08;100.00
6837;BME280;3456;42.136;24.736;2023-02-17T02:39:50;146926.97;;;0.83;100.00
6837;BME280;3456;42.136;24.736;2023-02-17T02:42:22;147042.28;;;1.29;100.00
6837;BME280;3456;42.136;24.736;2023-02-17T02:44:51;147047.25;;;1.31;100.00
6837;BME280;3456;42.136;24.736;2023-02-17T02:47:42;147053.56;;;1.34;100.00
6837;BME280;3456;42.136;24.736;2023-02-17T02:50:17;146919.44;;;0.80;100.00
6837;BME280;3456;42.136;24.736;2023-02-17T02:53:03;146969.56;;;1.00;100.00
6837;BME280;3456;42.136;24.736;2023-02-17T02:55:48;147022.19;;;1.21;100.00
6837;BME280;3456;42.136;24.736;2023-02-17T02:58:22;147002.13;;;1.13;100.00
6837;BME280;3456;42.136;24.736;2023-02-17T03:00:58;146969.56;;;1.00;100.00
6837;BME280;3456;42.136;24.736;2023-02-17T03:03:36;147002.13;;;1.13;100.00
6837;BME280;3456;42.136;24.736;2023-02-17T03:06:17;147010.91;;;1.17;100.00
6837;BME280;3456;42.136;24.736;2023-02-17T03:08:50;147039.75;;;1.28;100.00
6837;BME280;3456;42.136;24.736;2023-02-17T03:11:22;147028.44;;;1.24;100.00
6837;BME280;3456;42.136;24.736;2023-02-17T03:14:00;147058.56;;;1.36;100.00
6837;BME280;3456;42.136;24.736;2023-02-17T03:16:29;147057.31;;;1.35;100.00
6837;BME280;3456;42.136;24.736;2023-02-17T03:18:58;147035.97;;;1.27;100.00
6837;BME280;3456;42.136;24.736;2023-02-17T03:21:34;147022.19;;;1.21;100.00
6837;BME280;3456;42.136;24.736;2023-02-17T03:24:04;147057.31;;;1.35;100.00
6837;BME280;3456;42.136;24.736;2023-02-17T03:26:33;147004.66;;;1.14;100.00
6837;BME280;3456;42.136;24.736;2023-02-17T03:29:02;147049.81;;;1.32;100.00
6837;BME280;3456;42.136;24.736;2023-02-17T03:31:31;147041.00;;;1.29;100.00
6837;BME280;3456;42.136;24.736;2023-02-17T03:34:00;147054.78;;;1.34;100.00
6837;BME280;3456;42.136;24.736;2023-02-17T03:36:32;147029.72;;;1.24;100.00
6837;BME280;3456;42.136;24.736;2023-02-17T03:39:01;147035.97;;;1.27;100.00
6837;BME280;3456;42.136;24.736;2023-02-17T03:41:29;147083.63;;;1.46;100.00
6837;BME280;3456;42.136;24.736;2023-02-17T03:43:58;147077.34;;;1.43;100.00
6837;BME280;3456;42.136;24.736;2023-02-17T03:46:27;147009.66;;;1.16;100.00
6837;BME280;3456;42.136;24.736;2023-02-17T03:48:55;146934.47;;;0.86;100.00
6837;BME280;3456;42.136;24.736;2023-02-17T03:51:24;146861.78;;;0.57;100.00
6837;BME280;3456;42.136;24.736;2023-02-17T03:53:56;146896.88;;;0.71;100.00
6837;BME280;3456;42.136;24.736;2023-02-17T03:56:25;146903.13;;;0.74;100.00
6837;BME280;3456;42.136;24.736;2023-02-17T03:58:53;146893.13;;;0.70;100.00
6837;BME280;3456;42.136;24.736;2023-02-17T04:01:22;146824.19;;;0.42;100.00
6837;BME280;3456;42.136;24.736;2023-02-17T04:03:51;146886.81;;;0.67;100.00
6837;BME280;3456;42.136;24.736;2023-02-17T04:06:20;146889.38;;;0.68;100.00
6837;BME280;3456;42.136;24.736;2023-02-17T04:08:48;146908.16;;;0.76;100.00
6837;BME280;3456;42.136;24.736;2023-02-17T04:11:20;146909.38;;;0.76;100.00
6837;BME280;3456;42.136;24.736;2023-02-17T04:13:49;146898.09;;;0.72;100.00
6837;BME280;3456;42.136;24.736;2023-02-17T04:16:18;146903.13;;;0.74;100.00
6837;BME280;3456;42.136;24.736;2023-02-17T04:18:47;146866.81;;;0.59;100.00
6837;BME280;3456;42.136;24.736;2023-02-17T04:21:15;146815.47;;;0.39;100.00
6837;BME280;3456;42.136;24.736;2023-02-17T04:23:44;146853.00;;;0.54;100.00
6837;BME280;3456;42.136;24.736;2023-02-17T04:26:13;146861.78;;;0.57;100.00
6837;BME280;3456;42.136;24.736;2023-02-17T04:28:44;146866.81;;;0.59;100.00
6837;BME280;3456;42.136;24.736;2023-02-17T04:31:13;146850.50;;;0.53;100.00
6837;BME280;3456;42.136;24.736;2023-02-17T04:33:42;146824.19;;;0.42;100.00
6837;BME280;3456;42.136;24.736;2023-02-17T04:36:11;146839.22;;;0.48;100.00
6837;BME280;3456;42.136;24.736;2023-02-17T04:38:40;146816.69;;;0.39;100.00
6837;BME280;3456;42.136;24.736;2023-02-17T04:41:08;146831.72;;;0.45;100.00
6837;BME280;3456;42.136;24.736;2023-02-17T04:43:37;146844.25;;;0.50;100.00
6837;BME280;3456;42.136;24.736;2023-02-17T04:46:08;146701.47;;;-0.07;100.00
6837;BME280;3456;42.136;24.736;2023-02-17T04:48:38;146874.34;;;0.62;100.00
6837;BME280;3456;42.136;24.736;2023-02-17T04:51:07;146794.13;;;0.30;100.00
6837;BME280;3456;42.136;24.736;2023-02-17T04:53:35;146804.19;;;0.34;100.00
6837;BME280;3456;42.136;24.736;2023-02-17T04:56:05;146821.72;;;0.41;100.00
6837;BME280;3456;42.136;24.736;2023-02-17T04:58:34;146821.72;;;0.41;100.00
6837;BME280;3456;42.136;24.736;2023-02-17T05:01:03;146849.25;;;0.52;100.00
6837;BME280;3456;42.136;24.736;2023-02-17T05:03:34;146901.88;;;0.73;100.00
6837;BME280;3456;42.136;24.736;2023-02-17T05:06:04;146904.41;;;0.74;100.00
6837;BME280;3456;42.136;24.736;2023-02-17T05:08:33;146876.81;;;0.63;100.00
6837;BME280;3456;42.136;24.736;2023-02-17T05:11:02;146864.28;;;0.58;100.00
6837;BME280;3456;42.136;24.736;2023-02-17T05:13:30;146836.75;;;0.47;100.00
6837;BME280;3456;42.136;24.736;2023-02-17T05:16:00;146859.28;;;0.56;100.00
6837;BME280;3456;42.136;24.736;2023-02-17T05:18:28;146866.81;;;0.59;100.00
6837;BME280;3456;42.136;24.736;2023-02-17T05:21:00;146891.84;;;0.69;100.00
6837;BME280;3456;42.136;24.736;2023-02-17T05:23:28;146898.09;;;0.72;100.00
6837;BME280;3456;42.136;24.736;2023-02-17T05:25:57;146894.34;;;0.70;100.00
6837;BME280;3456;42.136;24.736;2023-02-17T05:28:26;146942.00;;;0.89;100.00
6837;BME280;3456;42.136;24.736;2023-02-17T05:30:55;146979.56;;;1.04;100.00
6837;BME280;3456;42.136;24.736;2023-02-17T05:33:23;146982.09;;;1.05;100.00
6837;BME280;3456;42.136;24.736;2023-02-17T05:35:52;146990.84;;;1.09;100.00
6837;BME280;3456;42.136;24.736;2023-02-17T05:38:23;146911.94;;;0.77;100.00
6837;BME280;3456;42.136;24.736;2023-02-17T05:40:52;146930.72;;;0.85;100.00
6837;BME280;3456;42.136;24.736;2023-02-17T05:43:21;146846.75;;;0.51;100.00
6837;BME280;3456;42.136;24.736;2023-02-17T05:45:50;146931.94;;;0.85;100.00
6837;BME280;3456;42.136;24.736;2023-02-17T05:48:18;147123.78;;;1.62;100.00
6837;BME280;3456;42.136;24.736;2023-02-17T05:50:48;147261.75;;;2.17;100.00
6837;BME280;3456;42.136;24.736;2023-02-17T05:53:17;147285.56;;;2.27;100.00
6837;BME280;3456;42.136;24.736;2023-02-17T05:55:49;147260.50;;;2.17;100.00
6837;BME280;3456;42.136;24.736;2023-02-17T05:58:17;147298.13;;;2.32;100.00
6837;BME280;3456;42.136;24.736;2023-02-17T06:00:46;147357.13;;;2.55;100.00
6837;BME280;3456;42.136;24.736;2023-02-17T06:03:15;147383.47;;;2.66;100.00
6837;BME280;3456;42.136;24.736;2023-02-17T06:05:44;147373.44;;;2.62;100.00
6837;BME280;3456;42.136;24.736;2023-02-17T06:08:14;147359.59;;;2.56;100.00
6837;BME280;3456;42.136;24.736;2023-02-17T06:10:44;147350.84;;;2.53;100.00
6837;BME280;3456;42.136;24.736;2023-02-17T06:13:15;147338.28;;;2.48;100.00
6837;BME280;3456;42.136;24.736;2023-02-17T06:15:44;147245.44;;;2.11;100.00
6837;BME280;3456;42.136;24.736;2023-02-17T06:18:13;147227.88;;;2.03;100.00
6837;BME280;3456;42.136;24.736;2023-02-17T06:20:42;147258.00;;;2.16;100.00
6837;BME280;3456;42.136;24.736;2023-02-17T06:23:10;147315.69;;;2.39;100.00
6837;BME280;3456;42.136;24.736;2023-02-17T06:25:39;147340.78;;;2.49;100.00
6837;BME280;3456;42.136;24.736;2023-02-17T06:28:10;147355.84;;;2.55;100.00
6837;BME280;3456;42.136;24.736;2023-02-17T06:30:42;147077.34;;;1.43;100.00
6837;BME280;3456;42.136;24.736;2023-02-17T06:33:10;147194.00;;;1.90;100.00
6837;BME280;3456;42.136;24.736;2023-02-17T06:35:41;147181.44;;;1.85;100.00
6837;BME280;3456;42.136;24.736;2023-02-17T06:38:11;147300.63;;;2.33;100.00
6837;BME280;3456;42.136;24.736;2023-02-17T06:40:39;147165.16;;;1.78;100.00
6837;BME280;3456;42.136;24.736;2023-02-17T06:43:08;147219.09;;;2.00;100.00
6837;BME280;3456;42.136;24.736;2023-02-17T06:45:37;147293.09;;;2.30;100.00
6837;BME280;3456;42.136;24.736;2023-02-17T06:48:08;147373.44;;;2.62;100.00
6837;BME280;3456;42.136;24.736;2023-02-17T06:50:37;147401.03;;;2.73;100.00
6837;BME280;3456;42.136;24.736;2023-02-17T06:53:06;147453.78;;;2.94;100.00
6837;BME280;3456;42.136;24.736;2023-02-17T06:55:35;147446.25;;;2.91;100.00
6837;BME280;3456;42.136;24.736;2023-02-17T06:58:04;147584.38;;;3.46;100.00
6837;BME280;3456;42.136;24.736;2023-02-17T07:00:33;147663.53;;;3.77;100.00
6837;BME280;3456;42.136;24.736;2023-02-17T07:03:04;147682.41;;;3.85;100.00
6837;BME280;3456;42.136;24.736;2023-02-17T07:05:37;147664.78;;;3.78;100.00
6837;BME280;3456;42.136;24.736;2023-02-17T07:08:06;147589.44;;;3.48;100.00
6837;BME280;3456;42.136;24.736;2023-02-17T07:10:35;147679.84;;;3.84;100.00
6837;BME280;3456;42.136;24.736;2023-02-17T07:13:05;147754.03;;;4.14;100.00
6837;BME280;3456;42.136;24.736;2023-02-17T07:15:33;147840.75;;;4.48;98.26
6837;BME280;3456;42.136;24.736;2023-02-17T07:18:02;147836.97;;;4.47;96.90
6837;BME280;3456;42.136;24.736;2023-02-17T07:20:32;147898.59;;;4.71;96.01
6837;BME280;3456;42.136;24.736;2023-02-17T07:23:03;147736.41;;;4.06;95.67
6837;BME280;3456;42.136;24.736;2023-02-17T07:25:32;147865.94;;;4.58;95.60
6837;BME280;3456;42.136;24.736;2023-02-17T07:28:00;147881.00;;;4.64;95.10
6837;BME280;3456;42.136;24.736;2023-02-17T07:30:29;148021.88;;;5.20;92.51
6837;BME280;3456;42.136;24.736;2023-02-17T07:32:58;148170.34;;;5.79;88.42
6837;BME280;3456;42.136;24.736;2023-02-17T07:35:27;148208.19;;;5.94;85.07
6837;BME280;3456;42.136;24.736;2023-02-17T07:37:56;148296.28;;;6.30;80.12
6837;BME280;3456;42.136;24.736;2023-02-17T07:40:27;148254.72;;;6.13;77.81
6837;BME280;3456;42.136;24.736;2023-02-17T07:42:56;148238.41;;;6.07;77.77
6837;BME280;3456;42.136;24.736;2023-02-17T07:45:25;148298.84;;;6.31;76.90
6837;BME280;3456;42.136;24.736;2023-02-17T07:47:54;148347.97;;;6.50;74.62
6837;BME280;3456;42.136;24.736;2023-02-17T07:50:23;148293.78;;;6.29;73.16
6837;BME280;3456;42.136;24.736;2023-02-17T07:52:51;148290.00;;;6.27;72.73
6837;BME280;3456;42.136;24.736;2023-02-17T07:55:20;148354.25;;;6.53;73.69
6837;BME280;3456;42.136;24.736;2023-02-17T07:57:51;148426.06;;;6.81;72.23
6837;BME280;3456;42.136;24.736;2023-02-17T08:00:21;148392.03;;;6.68;72.30
6837;BME280;3456;42.136;24.736;2023-02-17T08:02:49;148448.75;;;6.90;71.67
6837;BME280;3456;42.136;24.736;2023-02-17T08:05:18;148402.09;;;6.72;72.17
6837;BME280;3456;42.136;24.736;2023-02-17T08:07:47;148426.06;;;6.81;72.03
6837;BME280;3456;42.136;24.736;2023-02-17T08:10:36;148356.75;;;6.54;70.95
6837;BME280;3456;42.136;24.736;2023-02-17T08:13:22;148583.59;;;7.44;70.32
6837;BME280;3456;42.136;24.736;2023-02-17T08:15:50;148608.78;;;7.54;69.51
6837;BME280;3456;42.136;24.736;2023-02-17T08:18:19;148666.75;;;7.77;67.58
6837;BME280;3456;42.136;24.736;2023-02-17T08:20:48;148715.94;;;7.96;66.61
6837;BME280;3456;42.136;24.736;2023-02-17T08:23:19;148697.03;;;7.89;65.95
6837;BME280;3456;42.136;24.736;2023-02-17T08:25:52;148738.66;;;8.05;65.58
6837;BME280;3456;42.136;24.736;2023-02-17T08:28:26;148762.63;;;8.15;64.90
6837;BME280;3456;42.136;24.736;2023-02-17T08:30:55;148853.47;;;8.51;64.71
6837;BME280;3456;42.136;24.736;2023-02-17T08:33:24;148886.31;;;8.64;63.16
6837;BME280;3456;42.136;24.736;2023-02-17T08:35:53;148939.31;;;8.85;62.77
6837;BME280;3456;42.136;24.736;2023-02-17T08:38:22;148924.19;;;8.79;63.05
6837;BME280;3456;42.136;24.736;2023-02-17T08:40:51;148929.19;;;8.81;62.28
6837;BME280;3456;42.136;24.736;2023-02-17T08:43:20;148992.28;;;9.06;61.55
6837;BME280;3456;42.136;24.736;2023-02-17T08:45:51;149062.97;;;9.34;61.10
6837;BME280;3456;42.136;24.736;2023-02-17T08:48:20;149171.63;;;9.77;60.17
6837;BME280;3456;42.136;24.736;2023-02-17T08:50:49;149162.78;;;9.74;59.42
6837;BME280;3456;42.136;24.736;2023-02-17T08:53:20;149075.63;;;9.39;61.21
6837;BME280;3456;42.136;24.736;2023-02-17T08:55:49;149001.16;;;9.10;62.77
6837;BME280;3456;42.136;24.736;2023-02-17T08:58:18;149060.47;;;9.33;63.24
6837;BME280;3456;42.136;24.736;2023-02-17T09:00:47;148980.94;;;9.02;62.47
6837;BME280;3456;42.136;24.736;2023-02-17T09:03:19;149112.22;;;9.54;61.94
6837;BME280;3456;42.136;24.736;2023-02-17T09:05:47;149108.44;;;9.52;62.50
6837;BME280;3456;42.136;24.736;2023-02-17T09:08:16;149166.56;;;9.75;62.14
6837;BME280;3456;42.136;24.736;2023-02-17T09:10:45;149181.72;;;9.81;60.82
6837;BME280;3456;42.136;24.736;2023-02-17T09:13:14;149217.06;;;9.95;60.13
6837;BME280;3456;42.136;24.736;2023-02-17T09:15:43;149290.41;;;10.25;59.84
6837;BME280;3456;42.136;24.736;2023-02-17T09:18:11;149195.59;;;9.87;59.13
6837;BME280;3456;42.136;24.736;2023-02-17T09:20:43;149343.50;;;10.46;58.20
6837;BME280;3456;42.136;24.736;2023-02-17T09:23:12;149252.50;;;10.10;57.66
6837;BME280;3456;42.136;24.736;2023-02-17T09:25:41;149399.09;;;10.68;52.21
6837;BME280;3456;42.136;24.736;2023-02-17T09:28:10;149571.03;;;11.36;48.14
6837;BME280;3456;42.136;24.736;2023-02-17T09:30:40;149715.31;;;11.93;45.02
6837;BME280;3456;42.136;24.736;2023-02-17T09:33:09;149905.13;;;12.68;41.90
6837;BME280;3456;42.136;24.736;2023-02-17T09:35:38;149935.50;;;12.80;41.90
6837;BME280;3456;42.136;24.736;2023-02-17T09:38:09;150025.47;;;13.16;39.69
6837;BME280;3456;42.136;24.736;2023-02-17T09:40:42;150097.69;;;13.44;38.56
6837;BME280;3456;42.136;24.736;2023-02-17T09:43:15;150133.13;;;13.58;38.19
6837;BME280;3456;42.136;24.736;2023-02-17T09:45:49;150171.13;;;13.73;37.77
6837;BME280;3456;42.136;24.736;2023-02-17T09:48:21;150082.47;;;13.38;37.36
6837;BME280;3456;42.136;24.736;2023-02-17T09:50:55;150239.59;;;14.01;36.94
6837;BME280;3456;42.136;24.736;2023-02-17T09:53:32;150275.09;;;14.15;37.17
6837;BME280;3456;42.136;24.736;2023-02-17T09:56:08;150305.56;;;14.27;36.46
6837;BME280;3456;42.136;24.736;2023-02-17T09:58:41;150323.31;;;14.34;36.27
6837;BME280;3456;42.136;24.736;2023-02-17T10:01:15;150387.97;;;14.59;35.87
6837;BME280;3456;42.136;24.736;2023-02-17T10:03:51;150469.09;;;14.91;35.49
6837;BME280;3456;42.136;24.736;2023-02-17T10:06:25;150481.81;;;14.96;34.88
6837;BME280;3456;42.136;24.736;2023-02-17T10:09:03;150521.09;;;15.12;34.32
6837;BME280;3456;42.136;24.736;2023-02-17T10:11:38;150516.06;;;15.10;34.07
6837;BME280;3456;42.136;24.736;2023-02-17T10:14:11;150681.03;;;15.75;33.86
6837;BME280;3456;42.136;24.736;2023-02-17T10:16:47;150696.28;;;15.81;33.66
6837;BME280;3456;42.136;24.736;2023-02-17T10:19:23;150670.91;;;15.71;32.92
6837;BME280;3456;42.136;24.736;2023-02-17T10:22:00;150621.41;;;15.51;33.30
6837;BME280;3456;42.136;24.736;2023-02-17T10:24:32;150679.75;;;15.74;33.37
6837;BME280;3456;42.136;24.736;2023-02-17T10:27:29;150729.25;;;15.94;32.76
6837;BME280;3456;42.136;24.736;2023-02-17T10:30:18;150741.97;;;15.99;32.92
6837;BME280;3456;42.136;24.736;2023-02-17T10:32:59;150782.59;;;16.15;32.77
6837;BME280;3456;42.136;24.736;2023-02-17T10:35:49;150830.81;;;16.34;32.54
6837;BME280;3456;42.136;24.736;2023-02-17T10:38:33;150848.59;;;16.41;32.48
6837;BME280;3456;42.136;24.736;2023-02-17T10:41:10;150833.34;;;16.35;32.29
6837;BME280;3456;42.136;24.736;2023-02-17T10:43:42;150862.63;;;16.47;32.01
6837;BME280;3456;42.136;24.736;2023-02-17T10:46:14;150833.34;;;16.35;31.80
